Time;durP1;ratioP1;P1;durP2;ratioP2;P2;SDS_P1;SDS_P2;PMS_P1;PMS_P2;Temp;Humidity;BMP_temperature;BMP_pressure;BME280_temperature;BME280_humidity;BME280_pressure;Samples;Min_cycle;Max_cycle;Signal;HPM_P1;HPM_P2
2023/02/08 00:02:14;;;;;;;7.33;4.60;;;;;;;;;;5056148;28;20094;-56
2023/02/08 00:04:40;;;;;;;5.80;3.87;;;;;;;;;;5056446;28;20032;-58
2023/02/08 00:07:06;;;;;;;4.77;4.10;;;;;;;;;;5055823;28;20451;-54
2023/02/08 00:09:32;;;;;;;7.87;5.53;;;;;;;;;;5055781;28;20036;-57
2023/02/08 00:11:58;;;;;;;4.30;3.63;;;;;;;;;;5055859;28;20451;-56
2023/02/08 00:14:24;;;;;;;5.47;4.07;;;;;;;;;;5055728;28;20025;-58
2023/02/08 00:16:50;;;;;;;2.13;1.83;;;;;;;;;;5056062;28;20047;-56
2023/02/08 00:19:16;;;;;;;4.77;2.60;;;;;;;;;;5055733;28;20029;-56
2023/02/08 00:21:42;;;;;;;5.33;3.53;;;;;;;;;;5055537;28;20481;-57
2023/02/08 00:24:08;;;;;;;3.60;3.30;;;;;;;;;;5056017;28;20060;-57
2023/02/08 00:26:34;;;;;;;4.97;3.53;;;;;;;;;;5056329;28;20056;-57
2023/02/08 00:29:00;;;;;;;3.90;3.07;;;;;;;;;;5056072;28;20044;-53
2023/02/08 00:31:26;;;;;;;7.73;3.77;;;;;;;;;;5055335;28;20033;-57
2023/02/08 00:33:52;;;;;;;5.33;3.87;;;;;;;;;;5055589;28;20064;-54
2023/02/08 00:36:18;;;;;;;5.60;4.10;;;;;;;;;;5055938;28;20025;-54
2023/02/08 00:38:44;;;;;;;6.43;3.67;;;;;;;;;;5055784;28;20059;-56
2023/02/08 00:41:10;;;;;;;4.13;3.03;;;;;;;;;;5055116;28;20429;-55
2023/02/08 00:43:36;;;;;;;6.37;3.87;;;;;;;;;;5055237;28;20033;-55
2023/02/08 00:46:02;;;;;;;7.23;4.67;;;;;;;;;;5055030;28;20021;-55
2023/02/08 00:48:28;;;;;;;6.03;3.73;;;;;;;;;;5055146;28;20029;-57
2023/02/08 00:51:24;;;;;;;6.87;3.57;;;;;;;;;;5053833;28;20462;-56
2023/02/08 00:53:49;;;;;;;6.57;4.77;;;;;;;;;;5050279;28;20135;-57
2023/02/08 00:56:16;;;;;;;10.40;4.23;;;;;;;;;;5054952;28;20056;-55
2023/02/08 00:58:42;;;;;;;9.20;4.63;;;;;;;;;;5054494;28;20064;-57
2023/02/08 01:01:08;;;;;;;3.27;2.40;;;;;;;;;;5054595;28;20053;-56
2023/02/08 01:03:35;;;;;;;4.57;2.87;;;;;;;;;;5055061;28;20478;-57
2023/02/08 01:06:02;;;;;;;4.20;2.60;;;;;;;;;;5055060;28;20491;-53
2023/02/08 01:08:28;;;;;;;9.50;3.57;;;;;;;;;;5055064;28;20055;-53
2023/02/08 01:11:01;;;;;;;6.20;4.07;;;;;;;;;;5054746;28;20078;-57
2023/02/08 01:13:27;;;;;;;3.30;2.80;;;;;;;;;;5054472;28;20413;-53
2023/02/08 01:15:53;;;;;;;4.17;3.77;;;;;;;;;;5055149;28;20109;-55
2023/02/08 01:18:19;;;;;;;2.57;2.20;;;;;;;;;;5055089;28;20036;-55
2023/02/08 01:20:45;;;;;;;4.97;2.50;;;;;;;;;;5054481;28;20022;-53
2023/02/08 01:23:11;;;;;;;4.97;3.87;;;;;;;;;;5053946;28;20466;-56
2023/02/08 01:25:37;;;;;;;6.07;2.97;;;;;;;;;;5054463;28;20371;-52
2023/02/08 01:28:03;;;;;;;6.50;3.80;;;;;;;;;;5054404;28;20051;-56
2023/02/08 01:30:29;;;;;;;3.20;2.50;;;;;;;;;;5054467;28;20021;-54
2023/02/08 01:32:55;;;;;;;4.13;3.03;;;;;;;;;;5054340;28;20047;-56
2023/02/08 01:35:21;;;;;;;5.47;3.20;;;;;;;;;;5054454;28;20025;-53
2023/02/08 01:37:46;;;;;;;4.53;3.30;;;;;;;;;;5053937;28;20021;-56
2023/02/08 01:40:12;;;;;;;2.67;2.43;;;;;;;;;;5054214;28;20025;-54
2023/02/08 01:42:38;;;;;;;14.23;3.23;;;;;;;;;;5053998;28;20099;-53
2023/02/08 01:45:21;;;;;;;3.40;2.50;;;;;;;;;;5054388;28;20447;-55
2023/02/08 01:47:49;;;;;;;8.87;5.07;;;;;;;;;;5054273;28;20037;-55
2023/02/08 01:50:17;;;;;;;3.90;3.30;;;;;;;;;;5053891;28;20079;-55
2023/02/08 01:52:44;;;;;;;6.00;3.63;;;;;;;;;;5053884;28;20033;-54
2023/02/08 01:55:15;;;;;;;4.63;2.37;;;;;;;;;;5053911;28;20486;-55
2023/02/08 01:57:42;;;;;;;3.77;3.37;;;;;;;;;;5053864;28;20025;-56
2023/02/08 02:00:13;;;;;;;6.00;3.00;;;;;;;;;;5053621;28;20490;-54
2023/02/08 02:02:40;;;;;;;9.73;4.93;;;;;;;;;;5053021;28;20539;-54
2023/02/08 02:05:06;;;;;;;7.97;3.63;;;;;;;;;;5054053;28;20371;-52
2023/02/08 02:07:32;;;;;;;3.57;2.97;;;;;;;;;;5054213;28;20476;-56
2023/02/08 02:09:58;;;;;;;4.93;3.77;;;;;;;;;;5054001;28;20032;-53
2023/02/08 02:12:25;;;;;;;7.60;5.57;;;;;;;;;;5053503;28;20029;-55
2023/02/08 02:14:51;;;;;;;4.97;3.50;;;;;;;;;;5053337;28;20021;-53
2023/02/08 02:17:18;;;;;;;5.87;3.77;;;;;;;;;;5053271;28;20025;-55
2023/02/08 02:20:07;;;;;;;5.73;3.73;;;;;;;;;;5053287;28;20035;-56
2023/02/08 02:22:52;;;;;;;7.40;3.70;;;;;;;;;;5054331;28;20112;-53
2023/02/08 02:25:20;;;;;;;4.77;2.80;;;;;;;;;;5053663;28;20073;-56
2023/02/08 02:27:55;;;;;;;6.40;3.60;;;;;;;;;;5053546;28;20494;-54
2023/02/08 02:30:32;;;;;;;4.33;3.93;;;;;;;;;;5053263;28;20021;-56
2023/02/08 02:33:07;;;;;;;3.97;2.77;;;;;;;;;;5053670;28;20021;-56
2023/02/08 02:35:44;;;;;;;5.00;2.53;;;;;;;;;;5053889;28;20024;-55
2023/02/08 02:38:13;;;;;;;4.30;3.17;;;;;;;;;;5053713;28;20123;-55
2023/02/08 02:40:42;;;;;;;6.90;5.47;;;;;;;;;;5053194;28;20033;-53
2023/02/08 02:46:04;;;;;;;4.40;2.23;;;;;;;;;;5053528;28;20067;-55
2023/02/08 02:48:36;;;;;;;6.90;4.37;;;;;;;;;;5053702;28;20426;-53
2023/02/08 02:51:09;;;;;;;5.43;4.00;;;;;;;;;;5053381;28;20037;-51
2023/02/08 02:53:47;;;;;;;5.83;3.73;;;;;;;;;;5053705;28;20111;-56
2023/02/08 02:56:15;;;;;;;5.67;3.13;;;;;;;;;;5053639;28;20340;-53
2023/02/08 02:58:42;;;;;;;3.53;2.50;;;;;;;;;;5053761;28;20474;-56
2023/02/08 03:01:08;;;;;;;6.40;4.33;;;;;;;;;;5053076;28;20021;-55
2023/02/08 03:03:34;;;;;;;7.40;4.43;;;;;;;;;;5053767;28;20033;-55
2023/02/08 03:06:14;;;;;;;6.50;2.87;;;;;;;;;;5053487;28;20550;-52
2023/02/08 03:08:42;;;;;;;3.20;2.63;;;;;;;;;;5053403;28;20025;-54
2023/02/08 03:11:19;;;;;;;6.73;5.00;;;;;;;;;;5053174;28;20029;-53
2023/02/08 03:14:04;;;;;;;8.40;4.40;;;;;;;;;;5053391;28;20087;-56
2023/02/08 03:16:39;;;;;;;9.63;3.43;;;;;;;;;;5053477;28;20032;-52
2023/02/08 03:19:07;;;;;;;5.03;3.83;;;;;;;;;;5053125;28;20045;-54
2023/02/08 03:21:42;;;;;;;10.67;4.67;;;;;;;;;;5053392;28;20056;-52
2023/02/08 03:24:15;;;;;;;5.07;2.67;;;;;;;;;;5056686;28;20029;-52
2023/02/08 03:27:00;;;;;;;6.77;3.73;;;;;;;;;;5057395;28;20025;-54
2023/02/08 03:29:35;;;;;;;5.80;3.80;;;;;;;;;;5056700;28;20040;-53
2023/02/08 03:32:03;;;;;;;10.37;3.93;;;;;;;;;;5057154;28;20032;-53
2023/02/08 03:34:45;;;;;;;6.80;4.67;;;;;;;;;;5056539;28;20047;-56
2023/02/08 03:37:14;;;;;;;7.23;4.63;;;;;;;;;;5056578;28;20017;-53
2023/02/08 03:39:41;;;;;;;6.60;3.13;;;;;;;;;;5056933;28;20025;-53
2023/02/08 03:42:14;;;;;;;5.73;4.13;;;;;;;;;;5057217;28;20032;-53
2023/02/08 03:44:58;;;;;;;5.60;4.53;;;;;;;;;;5056137;28;20103;-52
2023/02/08 03:47:26;;;;;;;3.93;3.20;;;;;;;;;;5056355;28;20029;-54
2023/02/08 03:49:54;;;;;;;6.53;3.07;;;;;;;;;;5056310;28;20021;-51
2023/02/08 03:52:21;;;;;;;5.30;4.47;;;;;;;;;;5056364;28;20029;-54
2023/02/08 03:54:52;;;;;;;4.90;3.20;;;;;;;;;;5056828;28;20031;-56
2023/02/08 03:57:23;;;;;;;4.93;4.37;;;;;;;;;;5056275;28;20048;-52
2023/02/08 03:59:52;;;;;;;7.93;5.73;;;;;;;;;;5056060;28;20478;-53
2023/02/08 04:02:20;;;;;;;4.77;3.77;;;;;;;;;;5055950;28;20053;-51
2023/02/08 04:04:48;;;;;;;6.53;3.33;;;;;;;;;;5056377;28;20419;-52
2023/02/08 04:07:16;;;;;;;6.57;4.83;;;;;;;;;;5055978;28;20374;-52
2023/02/08 04:09:42;;;;;;;4.17;3.60;;;;;;;;;;5056284;28;20025;-52
2023/02/08 04:12:08;;;;;;;6.87;3.77;;;;;;;;;;5055874;28;20433;-54
2023/02/08 04:14:34;;;;;;;5.90;3.70;;;;;;;;;;5055859;28;20025;-52
2023/02/08 04:17:00;;;;;;;6.33;4.43;;;;;;;;;;5055850;28;20371;-53
2023/02/08 04:19:26;;;;;;;5.00;3.33;;;;;;;;;;5056083;28;20025;-54
2023/02/08 04:21:52;;;;;;;3.20;2.47;;;;;;;;;;5056252;28;20025;-55
2023/02/08 04:24:19;;;;;;;5.73;5.10;;;;;;;;;;5056399;28;20075;-52
2023/02/08 04:26:44;;;;;;;6.13;5.50;;;;;;;;;;5055822;28;20040;-55
2023/02/08 04:29:10;;;;;;;5.57;3.80;;;;;;;;;;5055755;28;20025;-51
2023/02/08 04:31:36;;;;;;;4.43;4.00;;;;;;;;;;5055580;28;20052;-52
2023/02/08 04:34:02;;;;;;;5.40;3.43;;;;;;;;;;5054981;28;20356;-54
2023/02/08 04:36:28;;;;;;;5.53;3.63;;;;;;;;;;5055906;28;20029;-55
2023/02/08 04:38:54;;;;;;;3.83;3.10;;;;;;;;;;5055440;28;20412;-52
2023/02/08 04:41:20;;;;;;;7.33;4.53;;;;;;;;;;5055086;28;20371;-52
2023/02/08 04:43:46;;;;;;;4.07;3.20;;;;;;;;;;5054979;28;20356;-55
2023/02/08 04:46:12;;;;;;;5.50;3.97;;;;;;;;;;5055608;28;20029;-54
2023/02/08 04:48:38;;;;;;;11.10;5.23;;;;;;;;;;5055536;28;20367;-53
2023/02/08 04:51:04;;;;;;;4.93;4.03;;;;;;;;;;5055178;28;20036;-53
2023/02/08 04:53:30;;;;;;;5.67;3.93;;;;;;;;;;5054910;28;20033;-56
2023/02/08 04:55:56;;;;;;;6.47;3.77;;;;;;;;;;5055466;28;20028;-56
2023/02/08 04:58:22;;;;;;;5.23;4.50;;;;;;;;;;5054888;28;20346;-52
2023/02/08 05:00:48;;;;;;;7.73;5.73;;;;;;;;;;5055262;28;20029;-55
2023/02/08 05:03:14;;;;;;;4.70;3.23;;;;;;;;;;5055280;28;20398;-56
2023/02/08 05:05:40;;;;;;;9.27;4.67;;;;;;;;;;5055305;28;20029;-53
2023/02/08 05:08:06;;;;;;;4.30;3.50;;;;;;;;;;5054701;28;20025;-56
2023/02/08 05:10:32;;;;;;;3.30;3.00;;;;;;;;;;5055207;28;20048;-54
2023/02/08 05:12:58;;;;;;;5.73;4.07;;;;;;;;;;5054241;28;20078;-56
2023/02/08 05:15:25;;;;;;;6.73;4.43;;;;;;;;;;5054666;28;20027;-55
2023/02/08 05:17:51;;;;;;;11.50;4.60;;;;;;;;;;5054566;28;20021;-56
2023/02/08 05:20:17;;;;;;;4.83;3.43;;;;;;;;;;5054356;28;20029;-56
2023/02/08 05:22:43;;;;;;;3.87;3.57;;;;;;;;;;5054592;28;20100;-57
2023/02/08 05:25:09;;;;;;;5.90;5.30;;;;;;;;;;5054532;28;20425;-57
2023/02/08 05:27:36;;;;;;;4.90;3.10;;;;;;;;;;5054788;28;20029;-54
2023/02/08 05:30:02;;;;;;;4.70;4.20;;;;;;;;;;5054374;28;20036;-54
2023/02/08 05:32:28;;;;;;;7.63;5.63;;;;;;;;;;5054344;28;20078;-56
2023/02/08 05:34:54;;;;;;;7.10;5.17;;;;;;;;;;5054553;28;20110;-56
2023/02/08 05:37:20;;;;;;;8.17;4.27;;;;;;;;;;5054040;28;20068;-51
2023/02/08 05:39:46;;;;;;;5.50;3.70;;;;;;;;;;5054204;28;20032;-56
2023/02/08 05:42:12;;;;;;;9.63;3.40;;;;;;;;;;5053818;28;20033;-53
2023/02/08 05:44:38;;;;;;;6.00;4.37;;;;;;;;;;5053919;28;20456;-56
2023/02/08 05:47:04;;;;;;;9.10;4.23;;;;;;;;;;5053023;28;20373;-56
2023/02/08 05:49:30;;;;;;;3.80;2.27;;;;;;;;;;5053527;28;20454;-56
2023/02/08 05:51:56;;;;;;;5.90;3.40;;;;;;;;;;5053792;28;20079;-55
2023/02/08 05:54:22;;;;;;;4.23;3.83;;;;;;;;;;5054294;28;20040;-52
2023/02/08 05:56:48;;;;;;;4.37;3.93;;;;;;;;;;5054006;28;20021;-55
2023/02/08 05:59:14;;;;;;;8.27;4.63;;;;;;;;;;5054323;28;20025;-55
2023/02/08 06:01:40;;;;;;;5.40;4.13;;;;;;;;;;5054246;28;20049;-56
2023/02/08 06:04:06;;;;;;;3.73;3.27;;;;;;;;;;5053823;28;20124;-51
2023/02/08 06:06:32;;;;;;;6.20;4.77;;;;;;;;;;5053951;28;20096;-54
2023/02/08 06:08:58;;;;;;;17.83;4.10;;;;;;;;;;5053525;28;20036;-54
2023/02/08 06:11:24;;;;;;;9.30;3.53;;;;;;;;;;5053903;28;20060;-56
2023/02/08 06:13:50;;;;;;;6.33;4.47;;;;;;;;;;5053561;28;20454;-56
2023/02/08 06:16:16;;;;;;;5.10;4.67;;;;;;;;;;5053968;28;20029;-54
2023/02/08 06:18:41;;;;;;;8.67;5.33;;;;;;;;;;5053764;28;20375;-54
2023/02/08 06:21:08;;;;;;;5.30;3.67;;;;;;;;;;5054257;28;20025;-55
2023/02/08 06:23:34;;;;;;;6.07;5.43;;;;;;;;;;5053435;28;20116;-54
2023/02/08 06:26:00;;;;;;;6.77;5.97;;;;;;;;;;5054241;28;20118;-56
2023/02/08 06:28:26;;;;;;;12.27;5.37;;;;;;;;;;5053404;28;20416;-53
2023/02/08 06:30:52;;;;;;;8.43;4.60;;;;;;;;;;5053771;28;20476;-55
2023/02/08 06:33:18;;;;;;;3.60;2.83;;;;;;;;;;5053590;28;20032;-52
2023/02/08 06:35:50;;;;;;;5.57;4.43;;;;;;;;;;5053965;28;20021;-55
2023/02/08 06:38:16;;;;;;;9.17;5.77;;;;;;;;;;5053433;28;20029;-53
2023/02/08 06:40:42;;;;;;;12.07;5.77;;;;;;;;;;5053735;28;20110;-50
2023/02/08 06:43:08;;;;;;;9.20;5.23;;;;;;;;;;5053199;28;20025;-52
2023/02/08 06:45:34;;;;;;;4.77;4.37;;;;;;;;;;5053583;28;20029;-52
2023/02/08 06:48:00;;;;;;;15.93;5.80;;;;;;;;;;5053326;28;20029;-54
2023/02/08 06:50:26;;;;;;;6.37;4.83;;;;;;;;;;5053269;28;20025;-52
2023/02/08 06:52:52;;;;;;;6.93;4.80;;;;;;;;;;5053385;28;20040;-52
2023/02/08 06:55:18;;;;;;;5.97;4.93;;;;;;;;;;5054072;28;20033;-54
2023/02/08 06:57:44;;;;;;;5.53;5.03;;;;;;;;;;5055130;28;20379;-54
2023/02/08 07:00:10;;;;;;;5.30;3.83;;;;;;;;;;5057333;28;20078;-53
2023/02/08 07:02:36;;;;;;;5.33;4.70;;;;;;;;;;5057214;28;20051;-53
2023/02/08 07:05:02;;;;;;;5.37;4.87;;;;;;;;;;5057224;28;20115;-53
2023/02/08 07:07:28;;;;;;;5.27;4.77;;;;;;;;;;5057131;28;20078;-55
2023/02/08 07:09:54;;;;;;;4.00;3.50;;;;;;;;;;5056747;28;20021;-55
2023/02/08 07:12:20;;;;;;;6.10;3.93;;;;;;;;;;5056927;28;20029;-54
2023/02/08 07:14:46;;;;;;;6.57;5.53;;;;;;;;;;5056036;28;20063;-55
2023/02/08 07:17:12;;;;;;;7.43;4.97;;;;;;;;;;5057223;28;20036;-55
2023/02/08 07:19:38;;;;;;;6.47;4.73;;;;;;;;;;5056705;28;20463;-49
2023/02/08 07:22:07;;;;;;;11.33;4.50;;;;;;;;;;5056848;28;20029;-50
2023/02/08 07:24:37;;;;;;;5.73;3.57;;;;;;;;;;5057356;28;20372;-55
2023/02/08 07:27:04;;;;;;;5.00;3.92;;;;;;;;;;5057008;28;20425;-50
2023/02/08 07:29:30;;;;;;;6.87;6.10;;;;;;;;;;5056372;28;20017;-53
2023/02/08 07:31:58;;;;;;;6.27;3.17;;;;;;;;;;5056716;28;20083;-51
2023/02/08 07:34:24;;;;;;;5.03;3.60;;;;;;;;;;5056412;28;20517;-50
2023/02/08 07:36:50;;;;;;;4.20;3.70;;;;;;;;;;5057127;28;20025;-57
2023/02/08 07:39:16;;;;;;;3.90;3.10;;;;;;;;;;5056655;28;20033;-57
2023/02/08 07:41:42;;;;;;;7.47;4.47;;;;;;;;;;5056879;28;20039;-56
2023/02/08 07:44:08;;;;;;;5.80;4.63;;;;;;;;;;5056335;28;20033;-56
2023/02/08 07:46:33;;;;;;;8.60;4.93;;;;;;;;;;5056857;28;20104;-56
2023/02/08 07:48:59;;;;;;;7.37;4.97;;;;;;;;;;5056410;28;20025;-55
2023/02/08 07:51:26;;;;;;;5.80;5.10;;;;;;;;;;5056892;28;20025;-52
2023/02/08 07:53:52;;;;;;;7.00;6.40;;;;;;;;;;5056011;28;20528;-53
2023/02/08 07:56:17;;;;;;;5.63;4.43;;;;;;;;;;5056577;28;20021;-55
2023/02/08 07:58:43;;;;;;;6.40;5.27;;;;;;;;;;5056269;28;20104;-53
2023/02/08 08:01:10;;;;;;;4.80;4.43;;;;;;;;;;5055899;28;20035;-49
2023/02/08 08:03:36;;;;;;;7.80;5.27;;;;;;;;;;5055654;28;20037;-55
2023/02/08 08:06:03;;;;;;;9.10;4.77;;;;;;;;;;5056136;28;20048;-51
2023/02/08 08:08:29;;;;;;;6.53;4.57;;;;;;;;;;5055237;28;20068;-55
2023/02/08 08:10:56;;;;;;;5.87;5.30;;;;;;;;;;5055443;28;20443;-54
2023/02/08 08:13:22;;;;;;;14.27;5.77;;;;;;;;;;5056224;28;20033;-51
2023/02/08 08:15:48;;;;;;;6.83;4.33;;;;;;;;;;5056238;28;20044;-52
2023/02/08 08:18:14;;;;;;;6.30;5.07;;;;;;;;;;5055853;28;20033;-54
2023/02/08 08:20:40;;;;;;;6.90;4.83;;;;;;;;;;5055674;28;20028;-54
2023/02/08 08:23:06;;;;;;;10.67;6.83;;;;;;;;;;5055277;28;20451;-52
2023/02/08 08:25:32;;;;;;;5.77;4.60;;;;;;;;;;5056119;28;20359;-50
2023/02/08 08:27:59;;;;;;;7.57;4.63;;;;;;;;;;5055899;28;20075;-53
2023/02/08 08:30:25;;;;;;;8.40;5.63;;;;;;;;;;5055583;28;20083;-54
2023/02/08 08:32:50;;;;;;;4.50;4.03;;;;;;;;;;5054251;28;20029;-52
2023/02/08 08:35:17;;;;;;;6.50;5.83;;;;;;;;;;5056214;28;20035;-52
2023/02/08 08:37:42;;;;;;;6.63;5.00;;;;;;;;;;5055324;28;20024;-50
2023/02/08 08:40:09;;;;;;;8.23;5.73;;;;;;;;;;5055440;28;20025;-56
2023/02/08 08:42:35;;;;;;;5.73;5.13;;;;;;;;;;5055135;28;20029;-51
2023/02/08 08:45:01;;;;;;;6.60;4.20;;;;;;;;;;5055418;28;20040;-56
2023/02/08 08:47:27;;;;;;;6.50;5.57;;;;;;;;;;5054971;28;20032;-56
2023/02/08 08:49:53;;;;;;;9.50;4.87;;;;;;;;;;5054514;28;20398;-51
2023/02/08 08:52:19;;;;;;;7.37;5.10;;;;;;;;;;5054916;28;20029;-54
2023/02/08 08:54:45;;;;;;;8.57;4.17;;;;;;;;;;5054898;28;20025;-53
2023/02/08 08:57:11;;;;;;;5.00;4.40;;;;;;;;;;5055002;28;20031;-53
2023/02/08 08:59:37;;;;;;;10.97;7.07;;;;;;;;;;5055056;28;20028;-53
2023/02/08 09:02:03;;;;;;;4.77;4.30;;;;;;;;;;5054299;28;20037;-54
2023/02/08 09:04:29;;;;;;;7.67;6.13;;;;;;;;;;5054731;28;20079;-51
2023/02/08 09:06:55;;;;;;;17.33;6.00;;;;;;;;;;5054808;28;20052;-56
2023/02/08 09:09:22;;;;;;;9.13;5.03;;;;;;;;;;5054742;28;20138;-53
2023/02/08 09:11:48;;;;;;;10.00;5.13;;;;;;;;;;5054747;28;20525;-55
2023/02/08 09:14:14;;;;;;;7.17;5.50;;;;;;;;;;5054778;28;20075;-51
2023/02/08 09:16:41;;;;;;;9.87;6.90;;;;;;;;;;5054728;28;20031;-56
2023/02/08 09:19:08;;;;;;;6.67;5.97;;;;;;;;;;5054721;28;20447;-52
2023/02/08 09:21:34;;;;;;;10.73;5.70;;;;;;;;;;5054611;28;20017;-55
2023/02/08 09:24:01;;;;;;;9.57;5.43;;;;;;;;;;5054438;28;20029;-57
2023/02/08 09:26:27;;;;;;;8.67;6.07;;;;;;;;;;5055124;28;20371;-57
2023/02/08 09:28:52;;;;;;;9.70;7.67;;;;;;;;;;5054174;28;20029;-53
2023/02/08 09:31:23;;;;;;;7.27;4.93;;;;;;;;;;5055010;28;20028;-57
2023/02/08 09:33:50;;;;;;;6.72;5.35;;;;;;;;;;5054314;28;20040;-55
2023/02/08 09:36:16;;;;;;;12.73;5.37;;;;;;;;;;5055081;28;20055;-53
2023/02/08 09:38:43;;;;;;;8.33;7.53;;;;;;;;;;5054161;28;20023;-55
2023/02/08 09:41:08;;;;;;;6.83;5.87;;;;;;;;;;5054484;28;20132;-54
2023/02/08 09:43:40;;;;;;;7.90;5.33;;;;;;;;;;5054093;28;20036;-55
2023/02/08 09:46:17;;;;;;;9.83;6.27;;;;;;;;;;5054689;28;20032;-51
2023/02/08 09:48:44;;;;;;;5.83;4.67;;;;;;;;;;5053995;28;20053;-55
2023/02/08 09:51:28;;;;;;;6.60;3.97;;;;;;;;;;5054292;28;20463;-57
2023/02/08 09:53:58;;;;;;;9.97;5.50;;;;;;;;;;5053792;28;20025;-53
2023/02/08 09:56:27;;;;;;;6.13;5.07;;;;;;;;;;5054634;28;20417;-52
2023/02/08 09:58:53;;;;;;;9.77;6.93;;;;;;;;;;5053830;28;20029;-53
2023/02/08 10:01:24;;;;;;;8.67;6.00;;;;;;;;;;5053704;28;20059;-53
2023/02/08 10:03:51;;;;;;;9.63;6.60;;;;;;;;;;5053719;28;20074;-51
2023/02/08 10:06:18;;;;;;;8.63;7.80;;;;;;;;;;5054226;28;20466;-54
2023/02/08 10:08:44;;;;;;;6.63;5.60;;;;;;;;;;5054557;28;20025;-54
2023/02/08 10:11:13;;;;;;;8.43;5.03;;;;;;;;;;5053689;28;20029;-54
2023/02/08 10:13:39;;;;;;;10.23;8.90;;;;;;;;;;5053963;28;20149;-55
2023/02/08 10:16:13;;;;;;;9.13;6.80;;;;;;;;;;5054359;28;20528;-55
2023/02/08 10:18:44;;;;;;;8.90;5.90;;;;;;;;;;5053994;28;20033;-55
2023/02/08 10:21:22;;;;;;;8.80;5.40;;;;;;;;;;5054148;28;20036;-55
2023/02/08 10:23:55;;;;;;;7.23;5.03;;;;;;;;;;5053388;28;20055;-55
2023/02/08 10:26:21;;;;;;;15.70;7.63;;;;;;;;;;5054049;28;20025;-54
2023/02/08 10:28:57;;;;;;;6.33;5.73;;;;;;;;;;5053483;28;20481;-53
2023/02/08 10:31:23;;;;;;;7.10;6.00;;;;;;;;;;5053546;28;20029;-56
2023/02/08 10:34:00;;;;;;;9.27;6.80;;;;;;;;;;5059511;28;20453;-53
2023/02/08 10:36:29;;;;;;;7.03;5.77;;;;;;;;;;5060522;28;20108;-55
2023/02/08 10:38:55;;;;;;;8.87;4.93;;;;;;;;;;5060574;28;20370;-55
2023/02/08 10:41:22;;;;;;;6.53;4.43;;;;;;;;;;5059674;28;20119;-53
2023/02/08 10:43:51;;;;;;;7.43;5.37;;;;;;;;;;5059910;28;20039;-55
2023/02/08 10:46:31;;;;;;;11.83;7.30;;;;;;;;;;5060803;28;20067;-53
2023/02/08 10:49:08;;;;;;;6.35;5.40;;;;;;;;;;5059981;28;20031;-54
2023/02/08 10:51:34;;;;;;;6.60;5.70;;;;;;;;;;5059945;28;20112;-53
2023/02/08 10:54:00;;;;;;;6.33;5.73;;;;;;;;;;5059941;28;20112;-51
2023/02/08 10:56:41;;;;;;;9.93;6.77;;;;;;;;;;5060449;28;20053;-53
2023/02/08 10:59:14;;;;;;;13.80;8.30;;;;;;;;;;5060337;28;20032;-56
2023/02/08 11:01:40;;;;;;;10.90;7.47;;;;;;;;;;5059936;28;20489;-53
2023/02/08 11:04:10;;;;;;;9.77;6.83;;;;;;;;;;5060390;28;20120;-54
2023/02/08 11:06:36;;;;;;;;;;;;;;;;;;5060307;28;20079;-55
2023/02/08 11:09:03;;;;;;;11.13;6.10;;;;;;;;;;5059951;28;20229;-55
2023/02/08 11:11:37;;;;;;;7.27;5.80;;;;;;;;;;5059620;28;20037;-55
2023/02/08 11:14:14;;;;;;;9.57;7.47;;;;;;;;;;5059393;28;20037;-54
2023/02/08 11:16:40;;;;;;;7.73;6.67;;;;;;;;;;5060578;28;20033;-54
2023/02/08 11:19:07;;;;;;;11.90;7.43;;;;;;;;;;5059742;28;20020;-56
2023/02/08 11:21:35;;;;;;;7.43;4.77;;;;;;;;;;5059787;28;20025;-55
2023/02/08 11:24:21;;;;;;;10.37;6.73;;;;;;;;;;5059751;28;20036;-54
2023/02/08 11:26:48;;;;;;;11.80;7.30;;;;;;;;;;5059400;28;20036;-56
2023/02/08 11:29:19;;;;;;;6.23;5.03;;;;;;;;;;5059711;28;20025;-55
2023/02/08 11:31:56;;;;;;;11.00;6.22;;;;;;;;;;5059579;28;20025;-54
2023/02/08 11:34:42;;;;;;;9.87;6.07;;;;;;;;;;5059902;28;20390;-55
2023/02/08 11:37:19;;;;;;;9.00;6.33;;;;;;;;;;5059374;28;20024;-56
2023/02/08 11:39:50;;;;;;;9.97;6.70;;;;;;;;;;5060275;28;20074;-55
2023/02/08 11:42:16;;;;;;;;;;;;;;;;;;5060284;28;20471;-54
2023/02/08 11:44:43;;;;;;;5.07;4.10;;;;;;;;;;5056779;28;19965;-55
2023/02/08 11:47:11;;;;;;;7.53;5.13;;;;;;;;;;5056830;28;20028;-56
2023/02/08 11:49:44;;;;;;;4.57;4.03;;;;;;;;;;5056027;28;20379;-54
2023/02/08 11:52:30;;;;;;;6.30;3.93;;;;;;;;;;5056227;28;20036;-54
2023/02/08 11:55:12;;;;;;;10.47;4.30;;;;;;;;;;5054744;28;20052;-52
2023/02/08 11:57:50;;;;;;;6.03;4.17;;;;;;;;;;5056767;28;20033;-54
2023/02/08 12:00:20;;;;;;;4.83;3.50;;;;;;;;;;5056837;28;20025;-56
2023/02/08 12:02:47;;;;;;;6.40;3.92;;;;;;;;;;5056392;28;20060;-54
2023/02/08 12:05:14;;;;;;;17.47;5.83;;;;;;;;;;5056095;28;20052;-55
2023/02/08 12:07:40;;;;;;;9.23;5.07;;;;;;;;;;5055342;28;20521;-54
2023/02/08 12:10:11;;;;;;;4.73;4.27;;;;;;;;;;5056240;28;20052;-55
2023/02/08 12:12:48;;;;;;;5.43;3.77;;;;;;;;;;5056149;28;20029;-56
2023/02/08 12:15:23;;;;;;;6.30;3.50;;;;;;;;;;5055950;28;20403;-56
2023/02/08 12:18:12;;;;;;;9.23;5.10;;;;;;;;;;5055619;28;20032;-56
2023/02/08 12:20:48;;;;;;;6.60;4.73;;;;;;;;;;5055100;28;20043;-54
2023/02/08 12:23:23;;;;;;;6.20;3.67;;;;;;;;;;5056419;28;20031;-55
2023/02/08 12:25:55;;;;;;;9.45;5.38;;;;;;;;;;5055999;28;20075;-55
2023/02/08 12:28:27;;;;;;;5.80;3.20;;;;;;;;;;5055406;28;20046;-53
2023/02/08 12:31:12;;;;;;;5.93;4.85;;;;;;;;;;5055531;28;20025;-56
2023/02/08 12:33:57;;;;;;;7.33;5.07;;;;;;;;;;5055946;28;20379;-55
2023/02/08 12:36:27;;;;;;;6.20;4.73;;;;;;;;;;5055647;28;20045;-56
2023/02/08 12:42:07;;;;;;;10.27;5.38;;;;;;;;;;5055005;28;20044;-56
2023/02/08 12:44:50;;;;;;;11.60;5.43;;;;;;;;;;5055679;28;20037;-56
2023/02/08 12:47:25;;;;;;;7.17;4.43;;;;;;;;;;5055198;28;20045;-56
2023/02/08 12:50:05;;;;;;;7.13;3.67;;;;;;;;;;5055609;28;20104;-57
2023/02/08 12:52:43;;;;;;;6.72;4.75;;;;;;;;;;5055515;28;20112;-57
2023/02/08 12:55:23;;;;;;;6.53;5.07;;;;;;;;;;5054511;28;20033;-56
2023/02/08 12:57:51;;;;;;;6.68;4.95;;;;;;;;;;5054751;28;20040;-56
2023/02/08 13:00:31;;;;;;;8.27;5.37;;;;;;;;;;5054930;28;20055;-56
2023/02/08 13:03:15;;;;;;;7.70;4.45;;;;;;;;;;5054974;28;20146;-53
2023/02/08 13:05:48;;;;;;;6.33;3.60;;;;;;;;;;5054790;28;20048;-57
2023/02/08 13:08:26;;;;;;;6.30;4.33;;;;;;;;;;5054649;28;20083;-57
2023/02/08 13:10:59;;;;;;;8.37;5.40;;;;;;;;;;5054355;28;20463;-57
2023/02/08 13:13:27;;;;;;;7.37;4.97;;;;;;;;;;5054259;28;20355;-57
2023/02/08 13:15:53;;;;;;;6.90;5.13;;;;;;;;;;5053999;28;20463;-57
2023/02/08 13:18:24;;;;;;;5.68;3.47;;;;;;;;;;5054535;28;20032;-55
2023/02/08 13:20:52;;;;;;;6.70;4.60;;;;;;;;;;5055227;28;20025;-56
2023/02/08 13:23:24;;;;;;;4.93;4.43;;;;;;;;;;5054376;28;20031;-55
2023/02/08 13:25:51;;;;;;;5.70;4.17;;;;;;;;;;5055291;28;20025;-57
2023/02/08 13:28:20;;;;;;;8.20;5.43;;;;;;;;;;5054200;28;20366;-58
2023/02/08 13:30:47;;;;;;;6.77;4.33;;;;;;;;;;5054584;28;20099;-55
2023/02/08 13:33:17;;;;;;;5.85;4.20;;;;;;;;;;5054364;28;20404;-56
2023/02/08 13:35:48;;;;;;;9.02;4.70;;;;;;;;;;5054082;28;20475;-56
2023/02/08 13:38:14;;;;;;;;;;;;;;;;;;5054935;28;20032;-58
2023/02/08 13:40:41;;;;;;;4.13;2.97;;;;;;;;;;5054068;28;19905;-54
2023/02/08 13:43:14;;;;;;;5.32;3.60;;;;;;;;;;5054044;28;20060;-52
2023/02/08 13:45:43;;;;;;;7.83;4.30;;;;;;;;;;5054269;28;20371;-56
2023/02/08 13:48:11;;;;;;;6.50;4.47;;;;;;;;;;5054022;28;20107;-54
2023/02/08 13:50:45;;;;;;;6.40;4.28;;;;;;;;;;5054327;28;20086;-56
2023/02/08 13:53:13;;;;;;;5.68;4.22;;;;;;;;;;5053922;28;20125;-56
2023/02/08 13:55:41;;;;;;;9.43;5.20;;;;;;;;;;5054087;28;20032;-54
2023/02/08 13:58:13;;;;;;;6.68;4.55;;;;;;;;;;5053633;28;20055;-56
2023/02/08 14:00:55;;;;;;;7.63;4.60;;;;;;;;;;5053549;28;20040;-56
2023/02/08 14:03:23;;;;;;;8.43;5.18;;;;;;;;;;5054017;28;20041;-55
2023/02/08 14:06:04;;;;;;;5.90;3.85;;;;;;;;;;5053911;28;20120;-56
2023/02/08 14:08:30;;;;;;;6.15;4.22;;;;;;;;;;5052943;28;20025;-53
2023/02/08 14:11:11;;;;;;;7.13;4.25;;;;;;;;;;5053509;28;20497;-55
2023/02/08 14:13:56;;;;;;;9.25;5.18;;;;;;;;;;5053471;28;20032;-52
2023/02/08 14:16:30;;;;;;;8.25;4.80;;;;;;;;;;5053923;28;20056;-55
2023/02/08 14:18:58;;;;;;;7.47;5.22;;;;;;;;;;5053529;28;20021;-55
2023/02/08 14:21:36;;;;;;;6.93;4.88;;;;;;;;;;5054399;28;20029;-50
2023/02/08 14:24:05;;;;;;;7.72;4.93;;;;;;;;;;5053605;28;20417;-54
2023/02/08 14:26:31;;;;;;;6.65;4.85;;;;;;;;;;5054050;28;20036;-53
2023/02/08 14:28:59;;;;;;;8.57;4.68;;;;;;;;;;5053578;28;20051;-53
2023/02/08 14:31:35;;;;;;;8.02;5.88;;;;;;;;;;5053451;28;20033;-54
2023/02/08 14:34:01;;;;;;;7.72;5.93;;;;;;;;;;5054039;28;20340;-55
2023/02/08 14:36:29;;;;;;;6.97;4.72;;;;;;;;;;5054024;28;20029;-56
2023/02/08 14:39:06;;;;;;;7.75;5.63;;;;;;;;;;5054169;28;20308;-54
2023/02/08 14:41:43;;;;;;;6.97;5.22;;;;;;;;;;5053618;28;20035;-55
2023/02/08 14:44:27;;;;;;;7.30;5.13;;;;;;;;;;5053391;28;20037;-55
2023/02/08 14:46:53;;;;;;;7.10;4.17;;;;;;;;;;5053547;28;20025;-54
2023/02/08 14:49:20;;;;;;;13.27;6.10;;;;;;;;;;5053441;28;20532;-53
2023/02/08 14:52:02;;;;;;;8.55;5.88;;;;;;;;;;5053289;28;20025;-53
2023/02/08 14:54:37;;;;;;;10.68;5.32;;;;;;;;;;5053535;28;20037;-53
2023/02/08 14:57:23;;;;;;;10.23;5.97;;;;;;;;;;5053040;28;20033;-51
2023/02/08 14:59:50;;;;;;;7.07;5.47;;;;;;;;;;5052939;28;20025;-55
2023/02/08 15:02:20;;;;;;;9.80;6.23;;;;;;;;;;5053005;28;20487;-54